createdAt,value
2022-12-23T03:47:30.073Z,0.52
2022-12-23T04:35:30.089Z,0.51
2022-12-23T04:51:30.090Z,0.51
2022-12-23T04:53:30.112Z,0.52
2022-12-23T04:54:30.103Z,0.51
2022-12-23T04:55:30.123Z,0.51
2022-12-23T04:56:30.107Z,0.52
2022-12-23T04:57:30.115Z,0.51
2022-12-23T04:58:30.122Z,0.52
2022-12-23T04:59:30.127Z,0.51
2022-12-23T05:00:34.097Z,0.50
2022-12-23T05:02:30.225Z,0.51
2022-12-23T05:03:30.159Z,0.50
2022-12-23T05:04:30.142Z,0.51
2022-12-23T05:05:30.138Z,0.51
2022-12-23T05:06:30.178Z,0.51
2022-12-23T05:07:30.111Z,0.51
2022-12-23T05:08:30.105Z,0.51
2022-12-23T05:09:30.114Z,0.51
2022-12-23T05:10:30.123Z,0.51
2022-12-23T05:11:30.177Z,0.51
2022-12-23T05:12:30.122Z,0.51
2022-12-23T05:13:30.123Z,0.51
2022-12-23T05:14:30.123Z,0.50
2022-12-23T05:15:30.136Z,0.51
2022-12-23T05:16:30.188Z,0.51
2022-12-23T05:17:30.145Z,0.51
2022-12-23T05:18:30.134Z,0.51
2022-12-23T05:19:30.217Z,0.51
2022-12-23T05:20:30.143Z,0.51
2022-12-23T05:21:30.152Z,0.51
2022-12-23T05:22:30.161Z,0.51
2022-12-23T05:23:30.160Z,0.51
2022-12-23T05:24:30.156Z,0.51
2022-12-23T05:25:30.173Z,0.51
2022-12-23T05:26:30.192Z,0.51
2022-12-23T05:27:30.182Z,0.51
2022-12-23T05:28:30.199Z,0.51
2022-12-23T05:29:30.189Z,0.50
2022-12-23T05:30:30.194Z,0.50
2022-12-23T05:31:30.233Z,0.50
2022-12-23T05:32:30.206Z,0.51
2022-12-23T05:33:30.325Z,0.50
2022-12-23T05:34:30.215Z,0.51
2022-12-23T05:35:30.231Z,0.50
2022-12-23T05:36:30.228Z,0.51
2022-12-23T05:37:30.229Z,0.50
2022-12-23T05:38:30.233Z,0.50
2022-12-23T05:53:30.263Z,0.51
2022-12-23T05:55:30.289Z,0.50
2022-12-23T05:56:30.278Z,0.51
2022-12-23T05:57:30.276Z,0.50
2022-12-23T05:58:30.278Z,0.51
2022-12-23T05:59:31.620Z,0.51
2022-12-23T06:00:30.296Z,0.51
2022-12-23T06:01:30.335Z,0.51
2022-12-23T06:02:30.471Z,0.51
2022-12-23T06:03:30.546Z,0.51
2022-12-23T06:04:30.275Z,0.51
2022-12-23T06:05:30.284Z,0.51
2022-12-23T06:06:30.276Z,0.51
2022-12-23T06:07:30.297Z,0.51
2022-12-23T06:08:30.296Z,0.51
2022-12-23T06:09:30.283Z,0.51
2022-12-23T06:10:30.288Z,0.51
2022-12-23T06:11:30.302Z,0.52
2022-12-23T06:12:30.301Z,0.52
2022-12-23T06:13:30.299Z,0.51
2022-12-23T06:14:30.307Z,0.52
2022-12-23T06:15:30.304Z,0.52
2022-12-23T06:16:30.361Z,0.51
2022-12-23T06:17:30.317Z,0.51
2022-12-23T06:18:30.321Z,0.51
2022-12-23T06:19:30.319Z,0.51
2022-12-23T06:20:30.321Z,0.51
2022-12-23T06:21:30.328Z,0.51
2022-12-23T06:22:30.329Z,0.51
2022-12-23T06:23:30.325Z,0.51
2022-12-23T06:24:30.329Z,0.51
2022-12-23T06:25:30.323Z,0.52
2022-12-23T06:26:30.334Z,0.51
2022-12-23T06:27:30.337Z,0.50
2022-12-23T06:28:30.358Z,0.51
2022-12-23T06:29:30.331Z,0.51
2022-12-23T06:30:30.344Z,0.51
2022-12-23T06:31:30.386Z,0.51
2022-12-23T06:32:34.508Z,0.51
2022-12-23T06:33:31.331Z,0.51
2022-12-23T06:34:30.340Z,0.51
2022-12-23T06:35:30.339Z,0.52
2022-12-23T06:36:30.366Z,0.53
2022-12-23T06:37:30.353Z,0.55
2022-12-23T06:38:30.344Z,0.55
2022-12-23T06:39:30.396Z,0.57
2022-12-23T06:40:30.345Z,0.57
2022-12-23T06:41:30.350Z,0.57
2022-12-23T06:42:30.358Z,0.58
2022-12-23T06:43:30.360Z,0.61
2022-12-23T06:44:30.385Z,0.59
2022-12-23T06:45:30.393Z,0.60
2022-12-23T06:46:30.439Z,0.62
2022-12-23T06:47:30.372Z,0.63
2022-12-23T06:48:30.384Z,0.64
2022-12-23T06:49:30.366Z,0.64
2022-12-23T06:50:30.377Z,0.65
2022-12-23T06:51:30.372Z,0.65
2022-12-23T06:52:30.380Z,0.67
2022-12-23T06:53:30.390Z,0.73
2022-12-23T06:54:30.385Z,0.77
2022-12-23T06:55:30.387Z,0.78
2022-12-23T06:56:30.399Z,0.81
2022-12-23T06:57:30.388Z,0.81
2022-12-23T06:58:30.392Z,0.82
2022-12-23T06:59:30.380Z,0.84
2022-12-23T07:00:30.465Z,0.81
2022-12-23T07:01:30.522Z,0.83
2022-12-23T07:02:30.490Z,0.83
2022-12-23T07:03:30.439Z,0.83
2022-12-23T07:04:30.430Z,0.85
2022-12-23T07:05:36.741Z,0.84
2022-12-23T07:06:31.386Z,0.84
2022-12-23T07:07:30.408Z,0.84
2022-12-23T07:08:30.391Z,0.83
2022-12-23T07:09:30.387Z,0.83
2022-12-23T07:10:30.533Z,0.76
2022-12-23T07:11:30.381Z,0.76
2022-12-23T07:12:30.398Z,0.79
2022-12-23T07:13:30.410Z,0.81
2022-12-23T07:14:30.390Z,0.79
2022-12-23T07:15:30.375Z,0.79
2022-12-23T07:16:30.455Z,0.77
2022-12-23T07:17:30.389Z,0.75
2022-12-23T07:18:30.376Z,0.77
2022-12-23T07:19:30.373Z,0.77
2022-12-23T07:20:30.371Z,0.78
2022-12-23T07:21:30.509Z,0.74
2022-12-23T07:22:30.355Z,0.73
2022-12-23T07:23:30.354Z,0.71
2022-12-23T07:24:30.369Z,0.72
2022-12-23T07:25:30.347Z,0.73
2022-12-23T07:26:30.345Z,0.69
2022-12-23T07:27:30.349Z,0.73
2022-12-23T07:28:30.337Z,0.73
2022-12-23T07:29:30.332Z,0.72
2022-12-23T07:30:30.338Z,0.72
2022-12-23T07:31:30.366Z,0.70
2022-12-23T07:32:30.329Z,0.71
2022-12-23T07:33:30.355Z,0.66
2022-12-23T07:34:30.322Z,0.67
2022-12-23T07:35:30.312Z,0.67
2022-12-23T07:36:30.298Z,0.66
2022-12-23T07:37:30.301Z,0.65
2022-12-23T07:38:30.303Z,0.66
2022-12-23T07:39:30.281Z,0.64
2022-12-23T07:40:30.282Z,0.64
2022-12-23T07:41:30.269Z,0.62
2022-12-23T07:42:46.790Z,0.59
2022-12-23T07:43:31.287Z,0.59
2022-12-23T07:44:30.279Z,0.59
2022-12-23T07:45:30.407Z,0.59
2022-12-23T07:46:30.389Z,0.59
2022-12-23T07:47:30.255Z,0.60
2022-12-23T07:48:30.263Z,0.60
2022-12-23T07:49:30.306Z,0.60
2022-12-23T07:50:30.261Z,0.59
2022-12-23T07:51:30.263Z,0.59
2022-12-23T07:52:30.244Z,0.58
2022-12-23T07:53:30.242Z,0.58
2022-12-23T07:54:30.255Z,0.56
2022-12-23T07:55:30.226Z,0.56
2022-12-23T07:56:30.230Z,0.55
2022-12-23T07:57:30.222Z,0.55
2022-12-23T07:58:30.220Z,0.54
2022-12-23T07:59:30.210Z,0.54
2022-12-23T08:00:30.202Z,0.53
2022-12-23T08:01:30.328Z,0.53
2022-12-23T08:02:30.445Z,0.53
2022-12-23T08:03:30.267Z,0.52
2022-12-23T08:04:30.240Z,0.51
2022-12-23T08:05:30.304Z,0.50
2022-12-23T08:06:30.189Z,0.50
2022-12-23T08:07:30.187Z,0.51
2022-12-23T08:08:30.197Z,0.51
2022-12-23T08:09:30.176Z,0.50
2022-12-23T08:10:30.173Z,0.50
2022-12-23T08:11:30.177Z,0.50
2022-12-23T08:12:30.184Z,0.50
2022-12-23T08:13:30.182Z,0.50
2022-12-23T08:14:30.192Z,0.51
2022-12-23T08:15:30.149Z,0.52
2022-12-23T08:16:30.246Z,0.51
2022-12-23T08:17:30.157Z,0.51
2022-12-23T08:18:30.157Z,0.51
2022-12-23T08:19:30.178Z,0.51
2022-12-23T08:20:30.165Z,0.50
2022-12-23T08:21:30.137Z,0.50
2022-12-23T08:22:30.139Z,0.49
2022-12-23T08:23:30.152Z,0.51
2022-12-23T08:24:30.138Z,0.51
2022-12-23T08:25:30.133Z,0.51
2022-12-23T08:26:30.154Z,0.51
2022-12-23T08:27:30.143Z,0.51
2022-12-23T08:28:30.122Z,0.51
2022-12-23T08:29:36.010Z,0.51
2022-12-23T08:30:31.135Z,0.51
2022-12-23T08:31:30.238Z,0.51
2022-12-23T08:32:30.128Z,0.49
2022-12-23T08:33:30.114Z,0.49
2022-12-23T08:34:30.118Z,0.48
2022-12-23T08:35:30.091Z,0.51
2022-12-23T08:38:30.195Z,0.51
2022-12-23T08:39:30.120Z,0.51
2022-12-23T08:51:30.216Z,0.55
2022-12-23T13:41:28.139Z,0.52
2022-12-23T13:42:28.131Z,0.52
2022-12-23T13:43:28.131Z,0.51
2022-12-23T13:44:28.121Z,0.52
2022-12-23T13:45:28.127Z,0.52
2022-12-23T13:46:28.139Z,0.52
2022-12-23T13:47:28.130Z,0.52
2022-12-23T13:48:28.130Z,0.52
2022-12-23T13:49:28.107Z,0.52
2022-12-23T13:50:28.095Z,0.52
2022-12-23T13:51:28.106Z,0.53
2022-12-23T13:52:28.087Z,0.52
2022-12-23T13:53:28.098Z,0.52
2022-12-23T13:54:28.079Z,0.52
2022-12-23T13:55:28.074Z,0.52
2022-12-23T13:56:28.077Z,0.53
2022-12-23T13:57:28.089Z,0.53
2022-12-23T13:58:28.079Z,0.53
2022-12-23T13:59:28.077Z,0.52
2022-12-23T14:00:28.061Z,0.52
2022-12-23T14:01:28.127Z,0.52
2022-12-23T14:02:28.078Z,0.52
2022-12-23T14:03:28.058Z,0.53
2022-12-23T14:04:28.046Z,0.53
2022-12-23T14:05:28.043Z,0.54
2022-12-23T14:06:28.030Z,0.54
2022-12-23T14:07:28.024Z,0.53
2022-12-23T14:08:28.023Z,0.53
2022-12-23T14:09:28.027Z,0.54
2022-12-23T14:10:28.014Z,0.52
2022-12-23T14:11:28.003Z,0.53
2022-12-23T14:12:27.994Z,0.52
2022-12-23T14:13:27.999Z,0.52
2022-12-23T14:14:27.999Z,0.53
2022-12-23T14:15:28.069Z,0.53
2022-12-23T14:16:27.999Z,0.53
2022-12-23T14:17:27.972Z,0.52
2022-12-23T14:18:27.989Z,0.52
2022-12-23T14:19:27.978Z,0.53
2022-12-23T14:20:27.975Z,0.53
2022-12-23T14:21:27.983Z,0.52
2022-12-23T14:22:27.967Z,0.52
2022-12-23T14:23:27.954Z,0.52
2022-12-23T14:24:27.956Z,0.52
2022-12-23T14:25:27.957Z,0.52
2022-12-23T14:26:27.961Z,0.52
2022-12-23T14:27:27.952Z,0.52
2022-12-23T14:28:27.939Z,0.52
2022-12-23T14:29:27.938Z,0.53
2022-12-23T14:30:27.927Z,0.51
2022-12-23T14:31:27.961Z,0.52
2022-12-23T14:32:27.925Z,0.52
2022-12-23T14:33:27.935Z,0.52
2022-12-23T14:34:28.007Z,0.52
2022-12-23T14:35:27.915Z,0.52
2022-12-23T14:36:27.939Z,0.52
2022-12-23T14:37:27.905Z,0.52
2022-12-23T14:38:27.913Z,0.51
2022-12-23T14:39:27.904Z,0.52
2022-12-23T14:40:27.912Z,0.51
2022-12-23T14:41:27.905Z,0.51
2022-12-23T14:42:27.893Z,0.52
2022-12-23T14:43:28.018Z,0.53
2022-12-23T14:44:27.921Z,0.51
2022-12-23T14:45:27.884Z,0.52
2022-12-23T14:46:27.924Z,0.51
2022-12-23T14:47:27.884Z,0.52
2022-12-23T14:48:27.881Z,0.51
2022-12-23T14:49:43.197Z,0.51
2022-12-23T14:50:28.891Z,0.51
2022-12-23T14:51:27.870Z,0.51
2022-12-23T14:52:27.874Z,0.51
2022-12-23T14:53:27.865Z,0.51
2022-12-23T14:54:27.862Z,0.51
2022-12-23T14:55:30.732Z,0.50
2022-12-23T14:56:27.858Z,0.50
2022-12-23T14:57:27.863Z,0.50
2022-12-23T14:58:27.878Z,0.51
2022-12-23T14:59:27.844Z,0.51
2022-12-23T15:00:27.849Z,0.52
2022-12-23T15:01:27.882Z,0.51
2022-12-23T15:02:27.863Z,0.51
2022-12-23T15:03:27.995Z,0.51
2022-12-23T15:04:27.838Z,0.51
2022-12-23T15:05:27.842Z,0.51
2022-12-23T15:06:27.828Z,0.51
2022-12-23T15:07:27.827Z,0.51
2022-12-23T15:08:27.824Z,0.50
2022-12-23T15:09:27.837Z,0.51
2022-12-23T15:10:27.821Z,0.50
2022-12-23T15:11:27.815Z,0.51
2022-12-23T15:12:27.819Z,0.51
2022-12-23T15:13:27.820Z,0.51
2022-12-23T15:14:27.814Z,0.51
2022-12-23T15:15:27.819Z,0.52
2022-12-23T15:16:27.868Z,0.51
2022-12-23T15:17:27.823Z,0.50
2022-12-23T15:18:27.811Z,0.50
2022-12-23T15:19:27.812Z,0.51
2022-12-23T15:20:27.820Z,0.51
2022-12-23T15:21:27.817Z,0.51
2022-12-23T15:22:32.230Z,0.51
2022-12-23T15:23:27.825Z,0.51
2022-12-23T15:24:27.821Z,0.51
2022-12-23T15:25:27.828Z,0.51
2022-12-23T15:26:27.836Z,0.51
2022-12-23T15:27:29.609Z,0.51
2022-12-23T15:28:27.860Z,0.51
2022-12-23T15:29:27.835Z,0.51
2022-12-23T15:30:27.843Z,0.51
2022-12-23T15:31:27.966Z,0.50
2022-12-23T15:32:27.859Z,0.51
2022-12-23T15:34:01.454Z,0.50
2022-12-23T15:34:28.856Z,0.50
2022-12-23T15:35:27.850Z,0.51
2022-12-23T15:36:27.905Z,0.51
2022-12-23T15:37:27.869Z,0.51
2022-12-23T15:38:27.861Z,0.51
2022-12-23T15:39:27.866Z,0.50
2022-12-23T15:40:27.873Z,0.51
2022-12-23T15:41:27.856Z,0.52
2022-12-23T15:42:27.844Z,0.51
2022-12-23T15:43:27.846Z,0.51
2022-12-23T15:44:27.857Z,0.51
2022-12-23T15:45:27.836Z,0.50
2022-12-23T15:46:30.373Z,0.51
2022-12-23T15:47:27.835Z,0.52
2022-12-23T15:48:27.829Z,0.52
2022-12-23T15:49:27.861Z,0.52
2022-12-23T15:50:27.842Z,0.52
2022-12-23T15:51:57.716Z,0.52
2022-12-23T15:52:28.806Z,0.52
2022-12-23T15:53:27.807Z,0.51
2022-12-23T15:54:27.804Z,0.52
2022-12-23T15:55:27.803Z,0.52
2022-12-23T15:56:27.800Z,0.52
2022-12-23T15:57:27.798Z,0.51
2022-12-23T15:58:27.802Z,0.51
2022-12-23T15:59:27.801Z,0.51
2022-12-23T16:00:27.850Z,0.51
2022-12-23T16:01:27.843Z,0.51
2022-12-23T16:03:29.033Z,0.51
2022-12-23T16:04:27.848Z,0.51
2022-12-23T16:05:27.814Z,0.51
2022-12-23T16:06:27.810Z,0.51
2022-12-23T16:07:27.816Z,0.51
2022-12-23T16:08:30.310Z,0.50
2022-12-23T16:09:27.823Z,0.52
2022-12-23T16:10:27.816Z,0.51
2022-12-23T16:11:27.820Z,0.51
2022-12-23T16:12:27.820Z,0.51
2022-12-23T16:13:27.805Z,0.51
2022-12-23T16:14:27.855Z,0.51
2022-12-23T16:15:27.809Z,0.51
2022-12-23T16:16:27.889Z,0.51
2022-12-23T16:17:27.809Z,0.50
2022-12-23T16:18:27.811Z,0.50
2022-12-23T16:19:27.807Z,0.51
2022-12-23T16:20:27.812Z,0.52
2022-12-23T16:21:27.801Z,0.51
2022-12-23T16:22:27.817Z,0.50
2022-12-23T16:23:27.787Z,0.51
2022-12-23T16:24:27.784Z,0.51
2022-12-23T16:25:27.821Z,0.51
2022-12-23T16:26:27.777Z,0.52
2022-12-23T16:27:27.773Z,0.51
2022-12-23T16:28:27.786Z,0.51
2022-12-23T16:29:27.760Z,0.51
2022-12-23T16:30:27.759Z,0.51
2022-12-23T16:31:27.804Z,0.51
2022-12-23T16:32:27.817Z,0.51
2022-12-23T16:33:27.746Z,0.52
2022-12-23T16:34:27.750Z,0.50
2022-12-23T16:35:27.740Z,0.51
2022-12-23T16:36:27.894Z,0.51
2022-12-23T16:37:27.734Z,0.51
2022-12-23T16:38:27.735Z,0.51
2022-12-23T16:39:27.720Z,0.50
2022-12-23T16:40:27.727Z,0.51
2022-12-23T16:41:27.728Z,0.52
2022-12-23T16:42:27.716Z,0.52
2022-12-23T16:43:27.708Z,0.52
2022-12-23T16:44:27.700Z,0.51
2022-12-23T16:45:27.753Z,0.51
2022-12-23T16:46:27.761Z,0.51
2022-12-23T16:47:27.687Z,0.51
2022-12-23T16:48:27.685Z,0.51
2022-12-23T16:49:33.229Z,0.51
2022-12-23T16:50:28.674Z,0.51
2022-12-23T16:51:27.768Z,0.51
2022-12-23T16:52:27.662Z,0.51
2022-12-23T16:53:27.658Z,0.51
2022-12-23T16:54:27.661Z,0.52
2022-12-23T16:55:27.668Z,0.51
2022-12-23T16:56:27.699Z,0.50
2022-12-23T16:57:27.670Z,0.51
2022-12-23T16:58:27.679Z,0.51
2022-12-23T16:59:27.669Z,0.52
2022-12-23T17:00:27.680Z,0.52
2022-12-23T17:01:27.795Z,0.51
2022-12-23T17:02:27.736Z,0.51
2022-12-23T17:03:27.694Z,0.51
2022-12-23T17:04:27.708Z,0.51
2022-12-23T17:05:27.683Z,0.51
2022-12-23T17:06:27.687Z,0.52
2022-12-23T17:07:27.694Z,0.51
2022-12-23T17:08:27.694Z,0.51
2022-12-23T17:09:27.680Z,0.51
2022-12-23T17:10:27.686Z,0.51
2022-12-23T17:11:27.726Z,0.51
2022-12-23T17:12:27.695Z,0.51
2022-12-23T17:13:27.691Z,0.51
2022-12-23T17:14:27.688Z,0.51
2022-12-23T17:15:27.683Z,0.50
2022-12-23T17:16:27.755Z,0.50
2022-12-23T17:17:27.689Z,0.51
2022-12-23T17:18:27.673Z,0.51
2022-12-23T17:19:29.615Z,0.51
2022-12-23T17:20:27.673Z,0.51
2022-12-23T17:21:27.672Z,0.51
2022-12-23T17:22:27.682Z,0.50
2022-12-23T17:23:27.669Z,0.51
2022-12-23T17:24:27.688Z,0.51
2022-12-23T17:25:27.658Z,0.51
2022-12-23T17:26:27.664Z,0.51
2022-12-23T17:27:27.733Z,0.51
2022-12-23T17:28:27.669Z,0.51
2022-12-23T17:29:27.654Z,0.51
2022-12-23T17:30:27.651Z,0.51
2022-12-23T17:31:27.769Z,0.51
2022-12-23T17:32:27.721Z,0.52
2022-12-23T17:33:27.655Z,0.53
2022-12-23T17:34:27.647Z,0.51
2022-12-23T17:35:27.652Z,0.51
2022-12-23T17:36:27.670Z,0.51
2022-12-23T17:37:27.646Z,0.52
2022-12-23T17:38:27.651Z,0.51
2022-12-23T17:39:27.666Z,0.50
2022-12-23T17:40:27.641Z,0.51
2022-12-23T17:41:27.645Z,0.53
2022-12-23T17:42:27.651Z,0.51
2022-12-23T17:43:27.640Z,0.51
2022-12-23T17:44:27.636Z,0.52
2022-12-23T17:45:27.677Z,0.53
2022-12-23T17:46:27.702Z,0.54
2022-12-23T17:47:27.617Z,0.51
2022-12-23T17:48:31.699Z,0.54
2022-12-23T17:49:27.610Z,0.54
2022-12-23T17:50:27.595Z,0.51
2022-12-23T17:51:27.586Z,0.51
2022-12-23T17:52:27.592Z,0.52
2022-12-23T17:53:27.579Z,0.52
2022-12-23T17:54:27.584Z,0.53
2022-12-23T17:55:27.571Z,0.53
2022-12-23T17:56:27.570Z,0.56
2022-12-23T17:57:27.561Z,0.53
2022-12-23T17:58:27.554Z,0.54
2022-12-23T17:59:27.548Z,0.54
2022-12-23T18:00:33.879Z,0.56
2022-12-23T18:01:28.656Z,0.53
2022-12-23T18:02:27.636Z,0.55
2022-12-23T18:03:27.545Z,0.56
2022-12-23T18:04:27.542Z,0.56
2022-12-23T18:05:27.540Z,0.56
2022-12-23T18:06:27.551Z,0.56
2022-12-23T18:07:27.540Z,0.56
2022-12-23T18:08:27.540Z,0.56
2022-12-23T18:09:27.541Z,0.56
2022-12-23T18:10:27.542Z,0.57
2022-12-23T18:11:27.532Z,0.56
2022-12-23T18:12:27.532Z,0.56
2022-12-23T18:13:27.528Z,0.55
2022-12-23T18:14:27.533Z,0.57
2022-12-23T18:15:27.524Z,0.55
2022-12-23T18:16:27.630Z,0.56
2022-12-23T18:17:27.566Z,0.56
2022-12-23T18:18:34.282Z,0.56
2022-12-23T18:19:28.523Z,0.56
2022-12-23T18:20:27.528Z,0.57
2022-12-23T18:21:27.534Z,0.55
2022-12-23T18:22:27.553Z,0.56
2022-12-23T18:23:27.599Z,0.55
2022-12-23T18:24:27.541Z,0.55
2022-12-23T18:25:27.556Z,0.56
2022-12-23T18:26:27.564Z,0.56
2022-12-23T18:27:27.550Z,0.55
2022-12-23T18:28:27.561Z,0.55
2022-12-23T18:29:27.549Z,0.55
2022-12-23T18:30:27.601Z,0.55
2022-12-23T18:31:27.748Z,0.55
2022-12-23T18:32:27.563Z,0.56
2022-12-23T18:33:27.574Z,0.55
2022-12-23T18:34:27.574Z,0.54
2022-12-23T18:35:27.609Z,0.55
2022-12-23T18:36:27.604Z,0.54
2022-12-23T18:37:27.583Z,0.55
2022-12-23T18:38:27.581Z,0.54
2022-12-23T18:39:27.596Z,0.53
2022-12-23T18:40:32.509Z,0.55
2022-12-23T18:41:28.578Z,0.55
2022-12-23T18:42:27.571Z,0.55
2022-12-23T18:43:27.572Z,0.55
2022-12-23T18:44:27.577Z,0.54
2022-12-23T18:45:27.565Z,0.53
2022-12-23T18:46:27.650Z,0.54
2022-12-23T18:47:27.565Z,0.54
2022-12-23T18:48:27.563Z,0.54
2022-12-23T18:49:27.556Z,0.54
2022-12-23T18:50:27.560Z,0.53
2022-12-23T18:51:27.557Z,0.54
2022-12-23T18:52:27.557Z,0.54
2022-12-23T18:53:27.559Z,0.55
2022-12-23T18:54:27.545Z,0.54
2022-12-23T18:55:27.551Z,0.54
2022-12-23T18:56:27.548Z,0.54
2022-12-23T18:57:27.546Z,0.53
2022-12-23T18:58:27.561Z,0.53
2022-12-23T18:59:30.176Z,0.54
2022-12-23T19:00:27.547Z,0.54
2022-12-23T19:01:27.595Z,0.54
2022-12-23T19:02:27.550Z,0.54
2022-12-23T19:03:27.533Z,0.53
2022-12-23T19:04:27.507Z,0.54
2022-12-23T19:05:27.503Z,0.52
2022-12-23T19:06:27.506Z,0.53
2022-12-23T19:07:27.493Z,0.53
2022-12-23T19:08:28.063Z,0.53
2022-12-23T19:09:27.492Z,0.53
2022-12-23T19:10:27.487Z,0.54
2022-12-23T19:11:27.494Z,0.53
2022-12-23T19:12:27.490Z,0.52
2022-12-23T19:13:27.498Z,0.52
2022-12-23T19:14:27.513Z,0.52
2022-12-23T19:15:27.477Z,0.53
2022-12-23T19:16:27.509Z,0.52
2022-12-23T19:17:27.473Z,0.52
2022-12-23T19:18:27.475Z,0.52
2022-12-23T19:19:27.470Z,0.52
2022-12-23T19:20:27.476Z,0.51
2022-12-23T19:21:27.462Z,0.51
2022-12-23T19:22:27.475Z,0.51
2022-12-23T19:23:27.460Z,0.52
2022-12-23T19:24:27.442Z,0.52
2022-12-23T19:25:27.444Z,0.51
2022-12-23T19:26:27.445Z,0.51
2022-12-23T19:27:27.464Z,0.52
2022-12-23T19:28:27.459Z,0.51
2022-12-23T19:29:27.450Z,0.52
2022-12-23T19:30:27.539Z,0.51
2022-12-23T19:31:27.538Z,0.52
2022-12-23T19:32:27.444Z,0.51
2022-12-23T19:33:27.443Z,0.51
2022-12-23T19:34:27.445Z,0.52
2022-12-23T19:35:27.441Z,0.52
2022-12-23T19:36:27.485Z,0.51
2022-12-23T19:37:27.431Z,0.52
2022-12-23T19:38:27.432Z,0.52
2022-12-23T19:39:27.423Z,0.51
2022-12-23T19:40:27.405Z,0.51
2022-12-23T19:41:27.398Z,0.51
2022-12-23T19:42:27.403Z,0.50
2022-12-23T19:43:27.385Z,0.51
2022-12-23T19:44:27.387Z,0.50
2022-12-23T19:45:27.376Z,0.51
2022-12-23T19:46:27.415Z,0.51
2022-12-23T19:47:27.390Z,0.51
2022-12-23T19:48:27.387Z,0.50
2022-12-23T19:49:27.348Z,0.51
2022-12-23T19:50:27.405Z,0.51
2022-12-23T19:51:27.330Z,0.52
2022-12-23T19:52:27.327Z,0.52
2022-12-23T19:53:27.314Z,0.52
2022-12-23T19:54:27.307Z,0.51
2022-12-23T19:55:27.327Z,0.51
2022-12-23T19:56:27.305Z,0.51
2022-12-23T19:57:27.294Z,0.51
2022-12-23T19:58:27.330Z,0.50
2022-12-23T19:59:27.327Z,0.51
2022-12-23T20:00:27.288Z,0.51
2022-12-23T20:01:27.358Z,0.51
2022-12-23T20:02:27.325Z,0.51
2022-12-23T20:03:27.348Z,0.51
2022-12-23T20:04:27.279Z,0.50
2022-12-23T20:05:27.275Z,0.50
2022-12-23T20:06:27.283Z,0.51
2022-12-23T20:07:27.296Z,0.51
2022-12-23T20:08:27.276Z,0.51
2022-12-23T20:09:27.286Z,0.50
2022-12-23T20:10:27.281Z,0.50
2022-12-23T20:11:27.288Z,0.51
2022-12-23T20:12:27.293Z,0.51
2022-12-23T20:13:27.299Z,0.50
2022-12-23T20:14:32.117Z,0.51
2022-12-23T20:15:28.359Z,0.51
2022-12-23T20:16:27.341Z,0.51
2022-12-23T20:17:27.300Z,0.51
2022-12-23T20:18:27.287Z,0.51
2022-12-23T20:19:27.275Z,0.51
2022-12-23T20:20:27.268Z,0.51
2022-12-23T20:21:27.272Z,0.52
2022-12-23T20:22:27.268Z,0.50
2022-12-23T20:23:27.264Z,0.51
2022-12-23T20:24:27.274Z,0.51
2022-12-23T20:25:27.274Z,0.51
2022-12-23T20:26:27.285Z,0.52
2022-12-23T20:27:28.300Z,0.50
2022-12-23T20:28:27.256Z,0.50
2022-12-23T20:29:27.266Z,0.51
2022-12-23T20:30:27.243Z,0.51
2022-12-23T20:31:27.307Z,0.52
2022-12-23T20:32:27.239Z,0.51
2022-12-23T20:33:27.237Z,0.51
2022-12-23T20:34:27.244Z,0.52
2022-12-23T20:35:27.268Z,0.51
2022-12-23T20:36:27.258Z,0.52
2022-12-23T20:37:27.224Z,0.50
2022-12-23T20:38:27.218Z,0.51
2022-12-23T20:39:27.216Z,0.51
2022-12-23T20:40:27.217Z,0.51
2022-12-23T20:41:27.218Z,0.51
2022-12-23T20:42:27.206Z,0.51
2022-12-23T20:43:27.205Z,0.51
2022-12-23T20:44:36.623Z,0.51
2022-12-23T20:45:28.205Z,0.51
2022-12-23T20:46:27.224Z,0.51
2022-12-23T20:47:27.196Z,0.51
2022-12-23T20:48:33.631Z,0.51
2022-12-23T20:49:28.199Z,0.51
2022-12-23T20:50:27.193Z,0.51
2022-12-23T20:51:27.196Z,0.51
2022-12-23T20:52:27.179Z,0.51
2022-12-23T20:53:27.177Z,0.52
2022-12-23T20:54:32.761Z,0.51
2022-12-23T20:55:28.172Z,0.51
2022-12-23T20:56:27.178Z,0.52
2022-12-23T20:57:27.154Z,0.51
2022-12-23T20:58:27.151Z,0.52
2022-12-23T20:59:27.151Z,0.51
2022-12-23T21:00:27.167Z,0.51
2022-12-23T21:01:27.198Z,0.51
2022-12-23T21:02:27.178Z,0.52
2022-12-23T21:03:27.225Z,0.51
2022-12-23T21:04:27.130Z,0.51
2022-12-23T21:05:27.124Z,0.50
2022-12-23T21:06:27.113Z,0.50
2022-12-23T21:07:27.120Z,0.50
2022-12-23T21:08:27.129Z,0.51
2022-12-23T21:09:27.133Z,0.52
2022-12-23T21:10:27.122Z,0.52
2022-12-23T21:11:27.116Z,0.52
2022-12-23T21:12:27.107Z,0.53
2022-12-23T21:13:27.113Z,0.51
2022-12-23T21:14:27.098Z,0.52
2022-12-23T21:15:27.104Z,0.52
2022-12-23T21:16:27.129Z,0.51
2022-12-23T21:17:27.084Z,0.51
2022-12-23T21:18:27.091Z,0.51
2022-12-23T21:19:27.079Z,0.51
2022-12-23T21:20:27.072Z,0.51
2022-12-23T21:21:27.072Z,0.52
2022-12-23T21:22:27.076Z,0.51
2022-12-23T21:23:27.059Z,0.51
2022-12-23T21:24:27.067Z,0.52
2022-12-23T21:25:27.060Z,0.51
2022-12-23T21:26:27.049Z,0.51
2022-12-23T21:27:27.051Z,0.51
2022-12-23T21:28:27.036Z,0.50
2022-12-23T21:29:27.046Z,0.52
2022-12-23T21:30:27.028Z,0.51
2022-12-23T21:31:27.069Z,0.51
2022-12-23T21:32:27.024Z,0.50
2022-12-23T21:33:27.010Z,0.52
2022-12-23T21:34:27.007Z,0.51
2022-12-23T21:35:27.010Z,0.51
2022-12-23T21:36:27.099Z,0.51
2022-12-23T21:37:26.999Z,0.51
2022-12-23T21:38:27.000Z,0.51
2022-12-23T21:39:26.997Z,0.51
2022-12-23T21:40:27.007Z,0.51
2022-12-23T21:41:27.010Z,0.52
2022-12-23T21:42:26.998Z,0.51
2022-12-23T21:43:27.001Z,0.52
2022-12-23T21:44:27.012Z,0.52
2022-12-23T21:45:26.996Z,0.52
2022-12-23T21:46:27.068Z,0.52
2022-12-23T21:47:27.011Z,0.51
2022-12-23T21:48:26.998Z,0.52
2022-12-23T21:49:27.001Z,0.52
2022-12-23T21:50:26.995Z,0.51
2022-12-23T21:51:27.911Z,0.52
2022-12-23T21:52:26.994Z,0.53
2022-12-23T21:53:26.995Z,0.50
2022-12-23T21:54:26.989Z,0.51
2022-12-23T21:55:26.995Z,0.51
2022-12-23T21:56:26.988Z,0.52
2022-12-23T21:57:26.991Z,0.51
2022-12-23T21:58:26.992Z,0.52
2022-12-23T21:59:32.805Z,0.50
2022-12-23T22:00:28.008Z,0.50
2022-12-23T22:01:27.028Z,0.51
2022-12-23T22:02:27.051Z,0.50
2022-12-23T22:03:26.988Z,0.50
2022-12-23T22:04:26.989Z,0.50
2022-12-23T22:05:26.986Z,0.51
2022-12-23T22:06:26.997Z,0.51
2022-12-23T22:07:26.984Z,0.51
2022-12-23T22:08:26.990Z,0.51
2022-12-23T22:09:26.998Z,0.51
2022-12-23T22:10:26.995Z,0.51
2022-12-23T22:11:26.994Z,0.51
2022-12-23T22:12:26.995Z,0.50
2022-12-23T22:13:27.003Z,0.50
2022-12-23T22:14:27.003Z,0.50
2022-12-23T22:15:27.018Z,0.50
2022-12-23T22:16:27.053Z,0.50
2022-12-23T22:17:27.028Z,0.51
2022-12-23T22:18:27.027Z,0.51
2022-12-23T22:19:27.044Z,0.50
2022-12-23T22:20:27.036Z,0.51
2022-12-23T22:21:27.045Z,0.51
2022-12-23T22:22:27.040Z,0.52
2022-12-23T22:23:27.046Z,0.52
2022-12-23T22:24:27.056Z,0.52
2022-12-23T22:25:27.055Z,0.52
2022-12-23T22:26:27.067Z,0.50
2022-12-23T22:27:27.222Z,0.51
2022-12-23T22:28:27.069Z,0.51
2022-12-23T22:29:27.071Z,0.51
2022-12-23T22:30:27.074Z,0.51
2022-12-23T22:31:27.159Z,0.52
2022-12-23T22:32:27.079Z,0.51
2022-12-23T22:33:27.081Z,0.51
2022-12-23T22:34:27.076Z,0.50
2022-12-23T22:35:27.082Z,0.51
2022-12-23T22:36:27.137Z,0.51
2022-12-23T22:37:27.084Z,0.50
2022-12-23T22:38:27.070Z,0.51
2022-12-23T22:39:27.077Z,0.51
2022-12-23T22:40:27.075Z,0.50
2022-12-23T22:41:27.106Z,0.50
2022-12-23T22:42:27.078Z,0.52
2022-12-23T22:43:27.075Z,0.51
2022-12-23T22:44:27.069Z,0.51
2022-12-23T22:45:27.123Z,0.51
2022-12-23T22:46:27.131Z,0.51
2022-12-23T22:47:27.084Z,0.51
2022-12-23T22:48:27.069Z,0.52
2022-12-23T22:49:27.084Z,0.51
2022-12-23T22:50:27.074Z,0.51
2022-12-23T22:51:27.081Z,0.52
2022-12-23T22:52:27.081Z,0.51
2022-12-23T22:53:29.902Z,0.52
2022-12-23T22:54:27.076Z,0.52
2022-12-23T22:55:27.077Z,0.52
2022-12-23T22:56:27.081Z,0.52
2022-12-23T22:57:27.099Z,0.52
2022-12-23T22:58:27.085Z,0.52
2022-12-23T22:59:27.080Z,0.51
2022-12-23T23:00:27.075Z,0.51
2022-12-23T23:01:27.113Z,0.51
2022-12-23T23:02:27.120Z,0.51
2022-12-23T23:03:27.089Z,0.51
2022-12-23T23:04:27.085Z,0.51
2022-12-23T23:05:27.163Z,0.50
2022-12-23T23:06:27.102Z,0.52
2022-12-23T23:07:27.078Z,0.51
2022-12-23T23:08:27.086Z,0.51
2022-12-23T23:09:27.079Z,0.51
2022-12-23T23:10:27.071Z,0.52
2022-12-23T23:11:27.112Z,0.52
2022-12-23T23:12:27.080Z,0.51
2022-12-23T23:13:27.077Z,0.52
2022-12-23T23:14:27.076Z,0.52
2022-12-23T23:15:27.070Z,0.53
2022-12-23T23:16:27.147Z,0.52
2022-12-23T23:17:27.096Z,0.51
2022-12-23T23:18:27.089Z,0.51
2022-12-23T23:19:27.077Z,0.51
2022-12-23T23:20:27.093Z,0.51
2022-12-23T23:21:27.062Z,0.52
2022-12-23T23:22:27.072Z,0.52
2022-12-23T23:23:27.073Z,0.52
2022-12-23T23:24:31.206Z,0.51
2022-12-23T23:25:27.062Z,0.51
2022-12-23T23:26:27.057Z,0.51
2022-12-23T23:27:27.063Z,0.51